sensor_id;sensor_type;location;lat;lon;timestamp;P1;durP1;ratioP1;P2;durP2;ratioP2
3841;SDS011;1936;47.074;15.336;2024-01-16T00:01:20;0.95;;;0.40;;
3841;SDS011;1936;47.074;15.336;2024-01-16T00:03:24;1.00;;;0.90;;
3841;SDS011;1936;47.074;15.336;2024-01-16T00:05:27;1.50;;;0.70;;
3841;SDS011;1936;47.074;15.336;2024-01-16T00:07:30;0.60;;;0.40;;
3841;SDS011;1936;47.074;15.336;2024-01-16T00:09:36;1.00;;;0.90;;
3841;SDS011;1936;47.074;15.336;2024-01-16T00:11:41;0.75;;;0.50;;
3841;SDS011;1936;47.074;15.336;2024-01-16T00:13:45;0.80;;;0.50;;
3841;SDS011;1936;47.074;15.336;2024-01-16T00:15:50;0.63;;;0.40;;
3841;SDS011;1936;47.074;15.336;2024-01-16T00:17:52;0.70;;;0.60;;
3841;SDS011;1936;47.074;15.336;2024-01-16T00:19:56;0.40;;;0.40;;
3841;SDS011;1936;47.074;15.336;2024-01-16T00:22:02;0.68;;;0.50;;
3841;SDS011;1936;47.074;15.336;2024-01-16T00:24:06;0.70;;;0.60;;
3841;SDS011;1936;47.074;15.336;2024-01-16T00:26:18;0.63;;;0.50;;
3841;SDS011;1936;47.074;15.336;2024-01-16T00:28:24;0.55;;;0.55;;
3841;SDS011;1936;47.074;15.336;2024-01-16T00:30:27;0.50;;;0.50;;
3841;SDS011;1936;47.074;15.336;2024-01-16T00:32:32;0.85;;;0.65;;
3841;SDS011;1936;47.074;15.336;2024-01-16T00:34:35;0.50;;;0.40;;
3841;SDS011;1936;47.074;15.336;2024-01-16T00:36:39;0.55;;;0.38;;
3841;SDS011;1936;47.074;15.336;2024-01-16T00:38:42;1.17;;;0.98;;
3841;SDS011;1936;47.074;15.336;2024-01-16T00:40:46;0.70;;;0.60;;
3841;SDS011;1936;47.074;15.336;2024-01-16T00:42:50;0.85;;;0.63;;
3841;SDS011;1936;47.074;15.336;2024-01-16T00:44:54;0.57;;;0.52;;
3841;SDS011;1936;47.074;15.336;2024-01-16T00:46:57;0.60;;;0.57;;
3841;SDS011;1936;47.074;15.336;2024-01-16T00:49:03;0.73;;;0.60;;
3841;SDS011;1936;47.074;15.336;2024-01-16T00:51:06;0.68;;;0.68;;
3841;SDS011;1936;47.074;15.336;2024-01-16T00:53:10;1.00;;;0.50;;
3841;SDS011;1936;47.074;15.336;2024-01-16T00:55:13;5.43;;;0.75;;
3841;SDS011;1936;47.074;15.336;2024-01-16T00:57:17;0.70;;;0.60;;
3841;SDS011;1936;47.074;15.336;2024-01-16T00:59:21;1.35;;;1.25;;
3841;SDS011;1936;47.074;15.336;2024-01-16T01:01:26;0.90;;;0.77;;
3841;SDS011;1936;47.074;15.336;2024-01-16T01:03:29;3.78;;;1.73;;
3841;SDS011;1936;47.074;15.336;2024-01-16T01:05:33;1.02;;;0.93;;
3841;SDS011;1936;47.074;15.336;2024-01-16T01:07:36;1.30;;;1.05;;
3841;SDS011;1936;47.074;15.336;2024-01-16T01:09:39;1.08;;;0.70;;
3841;SDS011;1936;47.074;15.336;2024-01-16T01:11:42;1.80;;;0.80;;
3841;SDS011;1936;47.074;15.336;2024-01-16T01:13:46;0.93;;;0.70;;
3841;SDS011;1936;47.074;15.336;2024-01-16T01:15:50;1.05;;;0.95;;
3841;SDS011;1936;47.074;15.336;2024-01-16T01:17:55;2.45;;;1.67;;
3841;SDS011;1936;47.074;15.336;2024-01-16T01:19:58;1.90;;;1.15;;
3841;SDS011;1936;47.074;15.336;2024-01-16T01:22:01;1.33;;;0.75;;
3841;SDS011;1936;47.074;15.336;2024-01-16T01:24:04;0.90;;;0.60;;
3841;SDS011;1936;47.074;15.336;2024-01-16T01:26:08;0.70;;;0.40;;
3841;SDS011;1936;47.074;15.336;2024-01-16T01:28:11;0.60;;;0.50;;
3841;SDS011;1936;47.074;15.336;2024-01-16T01:30:15;1.10;;;0.82;;
3841;SDS011;1936;47.074;15.336;2024-01-16T01:32:18;1.00;;;0.50;;
3841;SDS011;1936;47.074;15.336;2024-01-16T01:34:22;0.77;;;0.50;;
3841;SDS011;1936;47.074;15.336;2024-01-16T01:36:26;1.70;;;1.20;;
3841;SDS011;1936;47.074;15.336;2024-01-16T01:38:30;0.98;;;0.75;;
3841;SDS011;1936;47.074;15.336;2024-01-16T01:40:33;1.10;;;0.73;;
3841;SDS011;1936;47.074;15.336;2024-01-16T01:42:36;1.55;;;1.02;;
3841;SDS011;1936;47.074;15.336;2024-01-16T01:44:40;1.20;;;0.80;;
3841;SDS011;1936;47.074;15.336;2024-01-16T01:46:43;0.60;;;0.60;;
3841;SDS011;1936;47.074;15.336;2024-01-16T01:48:48;0.65;;;0.65;;
3841;SDS011;1936;47.074;15.336;2024-01-16T01:50:53;0.70;;;0.60;;
3841;SDS011;1936;47.074;15.336;2024-01-16T01:52:56;0.80;;;0.60;;
3841;SDS011;1936;47.074;15.336;2024-01-16T01:55:00;0.60;;;0.50;;
3841;SDS011;1936;47.074;15.336;2024-01-16T01:57:04;3.70;;;0.50;;
3841;SDS011;1936;47.074;15.336;2024-01-16T01:59:10;0.80;;;0.47;;
3841;SDS011;1936;47.074;15.336;2024-01-16T02:01:14;1.23;;;0.63;;
3841;SDS011;1936;47.074;15.336;2024-01-16T02:03:20;1.63;;;0.88;;
3841;SDS011;1936;47.074;15.336;2024-01-16T02:05:26;0.85;;;0.68;;
3841;SDS011;1936;47.074;15.336;2024-01-16T02:07:31;0.60;;;0.50;;
3841;SDS011;1936;47.074;15.336;2024-01-16T02:09:36;0.95;;;0.60;;
3841;SDS011;1936;47.074;15.336;2024-01-16T02:11:40;0.50;;;0.45;;
3841;SDS011;1936;47.074;15.336;2024-01-16T02:13:43;1.50;;;1.40;;
3841;SDS011;1936;47.074;15.336;2024-01-16T02:15:47;2.95;;;1.92;;
3841;SDS011;1936;47.074;15.336;2024-01-16T02:17:51;3.30;;;1.30;;
3841;SDS011;1936;47.074;15.336;2024-01-16T02:19:54;2.08;;;1.63;;
3841;SDS011;1936;47.074;15.336;2024-01-16T02:21:59;3.67;;;2.83;;
3841;SDS011;1936;47.074;15.336;2024-01-16T02:24:05;6.72;;;4.57;;
3841;SDS011;1936;47.074;15.336;2024-01-16T02:26:08;2.28;;;0.93;;
3841;SDS011;1936;47.074;15.336;2024-01-16T02:28:12;4.45;;;3.13;;
3841;SDS011;1936;47.074;15.336;2024-01-16T02:30:16;3.97;;;3.58;;
3841;SDS011;1936;47.074;15.336;2024-01-16T02:32:20;3.58;;;2.40;;
3841;SDS011;1936;47.074;15.336;2024-01-16T02:34:24;1.83;;;1.40;;
3841;SDS011;1936;47.074;15.336;2024-01-16T02:36:27;2.10;;;1.50;;
3841;SDS011;1936;47.074;15.336;2024-01-16T02:38:31;2.92;;;1.63;;
3841;SDS011;1936;47.074;15.336;2024-01-16T02:40:35;2.80;;;1.58;;
3841;SDS011;1936;47.074;15.336;2024-01-16T02:42:39;2.00;;;1.30;;
3841;SDS011;1936;47.074;15.336;2024-01-16T02:44:43;2.13;;;1.85;;
3841;SDS011;1936;47.074;15.336;2024-01-16T02:46:46;5.18;;;2.38;;
3841;SDS011;1936;47.074;15.336;2024-01-16T02:48:50;1.25;;;1.15;;
3841;SDS011;1936;47.074;15.336;2024-01-16T02:50:53;2.08;;;1.25;;
3841;SDS011;1936;47.074;15.336;2024-01-16T02:52:56;3.83;;;1.80;;
3841;SDS011;1936;47.074;15.336;2024-01-16T02:55:00;1.75;;;1.00;;
3841;SDS011;1936;47.074;15.336;2024-01-16T02:57:05;1.65;;;1.40;;
3841;SDS011;1936;47.074;15.336;2024-01-16T02:59:08;1.60;;;1.25;;
3841;SDS011;1936;47.074;15.336;2024-01-16T03:01:12;3.70;;;1.92;;
3841;SDS011;1936;47.074;15.336;2024-01-16T03:03:16;0.50;;;0.50;;
3841;SDS011;1936;47.074;15.336;2024-01-16T03:05:20;0.60;;;0.60;;
3841;SDS011;1936;47.074;15.336;2024-01-16T03:07:24;1.15;;;0.90;;
3841;SDS011;1936;47.074;15.336;2024-01-16T03:09:27;5.88;;;2.15;;
3841;SDS011;1936;47.074;15.336;2024-01-16T03:11:31;4.90;;;2.30;;
3841;SDS011;1936;47.074;15.336;2024-01-16T03:13:36;2.05;;;1.40;;
3841;SDS011;1936;47.074;15.336;2024-01-16T03:15:40;4.40;;;1.80;;
3841;SDS011;1936;47.074;15.336;2024-01-16T03:17:42;1.63;;;1.02;;
3841;SDS011;1936;47.074;15.336;2024-01-16T03:19:45;0.93;;;0.70;;
3841;SDS011;1936;47.074;15.336;2024-01-16T03:21:49;2.63;;;1.45;;
3841;SDS011;1936;47.074;15.336;2024-01-16T03:23:51;1.05;;;0.90;;
3841;SDS011;1936;47.074;15.336;2024-01-16T03:25:55;0.70;;;0.70;;
3841;SDS011;1936;47.074;15.336;2024-01-16T03:27:59;1.10;;;0.80;;
3841;SDS011;1936;47.074;15.336;2024-01-16T03:30:04;2.00;;;1.33;;
3841;SDS011;1936;47.074;15.336;2024-01-16T03:32:10;1.75;;;0.73;;
3841;SDS011;1936;47.074;15.336;2024-01-16T03:34:13;2.20;;;1.00;;
3841;SDS011;1936;47.074;15.336;2024-01-16T03:36:17;1.35;;;0.85;;
3841;SDS011;1936;47.074;15.336;2024-01-16T03:38:20;1.67;;;0.65;;
3841;SDS011;1936;47.074;15.336;2024-01-16T03:40:24;0.93;;;0.80;;
3841;SDS011;1936;47.074;15.336;2024-01-16T03:42:27;1.02;;;0.70;;
3841;SDS011;1936;47.074;15.336;2024-01-16T03:44:29;2.35;;;0.55;;
3841;SDS011;1936;47.074;15.336;2024-01-16T03:46:34;1.10;;;0.70;;
3841;SDS011;1936;47.074;15.336;2024-01-16T03:48:37;0.75;;;0.50;;
3841;SDS011;1936;47.074;15.336;2024-01-16T03:50:41;0.73;;;0.73;;
3841;SDS011;1936;47.074;15.336;2024-01-16T03:52:47;0.90;;;0.70;;
3841;SDS011;1936;47.074;15.336;2024-01-16T03:54:50;4.80;;;1.20;;
3841;SDS011;1936;47.074;15.336;2024-01-16T03:56:53;0.70;;;0.70;;
3841;SDS011;1936;47.074;15.336;2024-01-16T03:58:57;1.33;;;0.90;;
3841;SDS011;1936;47.074;15.336;2024-01-16T04:01:00;0.90;;;0.60;;
3841;SDS011;1936;47.074;15.336;2024-01-16T04:03:05;1.55;;;0.80;;
3841;SDS011;1936;47.074;15.336;2024-01-16T04:05:09;1.65;;;1.00;;
3841;SDS011;1936;47.074;15.336;2024-01-16T04:07:13;1.35;;;0.82;;
3841;SDS011;1936;47.074;15.336;2024-01-16T04:09:16;3.90;;;1.30;;
3841;SDS011;1936;47.074;15.336;2024-01-16T04:11:18;1.40;;;0.90;;
3841;SDS011;1936;47.074;15.336;2024-01-16T04:13:22;1.38;;;1.13;;
3841;SDS011;1936;47.074;15.336;2024-01-16T04:15:25;1.48;;;1.02;;
3841;SDS011;1936;47.074;15.336;2024-01-16T04:17:28;1.90;;;1.10;;
3841;SDS011;1936;47.074;15.336;2024-01-16T04:19:32;1.92;;;1.05;;
3841;SDS011;1936;47.074;15.336;2024-01-16T04:21:36;0.90;;;0.70;;
3841;SDS011;1936;47.074;15.336;2024-01-16T04:23:40;1.20;;;0.88;;
3841;SDS011;1936;47.074;15.336;2024-01-16T04:25:44;0.80;;;0.80;;
3841;SDS011;1936;47.074;15.336;2024-01-16T04:27:48;2.28;;;1.20;;
3841;SDS011;1936;47.074;15.336;2024-01-16T04:29:51;3.03;;;0.98;;
3841;SDS011;1936;47.074;15.336;2024-01-16T04:31:54;0.98;;;0.88;;
3841;SDS011;1936;47.074;15.336;2024-01-16T04:33:58;2.58;;;0.70;;
3841;SDS011;1936;47.074;15.336;2024-01-16T04:36:03;0.60;;;0.60;;
3841;SDS011;1936;47.074;15.336;2024-01-16T04:38:07;1.45;;;0.65;;
3841;SDS011;1936;47.074;15.336;2024-01-16T04:40:10;1.23;;;0.82;;
3841;SDS011;1936;47.074;15.336;2024-01-16T04:42:14;2.15;;;0.60;;
3841;SDS011;1936;47.074;15.336;2024-01-16T04:44:19;0.70;;;0.70;;
3841;SDS011;1936;47.074;15.336;2024-01-16T04:46:23;1.98;;;0.70;;
3841;SDS011;1936;47.074;15.336;2024-01-16T04:48:26;0.98;;;0.70;;
3841;SDS011;1936;47.074;15.336;2024-01-16T04:50:30;0.70;;;0.70;;
3841;SDS011;1936;47.074;15.336;2024-01-16T04:52:35;1.80;;;0.90;;
3841;SDS011;1936;47.074;15.336;2024-01-16T04:54:39;0.88;;;0.88;;
3841;SDS011;1936;47.074;15.336;2024-01-16T04:56:42;1.50;;;0.90;;
3841;SDS011;1936;47.074;15.336;2024-01-16T04:58:45;2.90;;;1.02;;
3841;SDS011;1936;47.074;15.336;2024-01-16T05:00:49;1.98;;;0.88;;
3841;SDS011;1936;47.074;15.336;2024-01-16T05:02:52;1.75;;;1.55;;
3841;SDS011;1936;47.074;15.336;2024-01-16T05:04:55;2.17;;;1.15;;
3841;SDS011;1936;47.074;15.336;2024-01-16T05:06:59;1.02;;;0.93;;
3841;SDS011;1936;47.074;15.336;2024-01-16T05:09:03;0.88;;;0.80;;
3841;SDS011;1936;47.074;15.336;2024-01-16T05:11:06;1.05;;;0.85;;
3841;SDS011;1936;47.074;15.336;2024-01-16T05:13:10;1.50;;;1.40;;
3841;SDS011;1936;47.074;15.336;2024-01-16T05:15:13;2.25;;;1.15;;
3841;SDS011;1936;47.074;15.336;2024-01-16T05:17:17;2.08;;;1.33;;
3841;SDS011;1936;47.074;15.336;2024-01-16T05:19:19;2.05;;;1.23;;
3841;SDS011;1936;47.074;15.336;2024-01-16T05:21:22;1.42;;;1.30;;
3841;SDS011;1936;47.074;15.336;2024-01-16T05:23:26;3.17;;;1.63;;
3841;SDS011;1936;47.074;15.336;2024-01-16T05:25:31;2.00;;;1.30;;
3841;SDS011;1936;47.074;15.336;2024-01-16T05:27:34;1.50;;;1.40;;
3841;SDS011;1936;47.074;15.336;2024-01-16T05:29:37;1.60;;;1.50;;
3841;SDS011;1936;47.074;15.336;2024-01-16T05:31:45;2.28;;;1.75;;
3841;SDS011;1936;47.074;15.336;2024-01-16T05:33:48;1.40;;;1.25;;
3841;SDS011;1936;47.074;15.336;2024-01-16T05:35:52;0.93;;;0.75;;
3841;SDS011;1936;47.074;15.336;2024-01-16T05:37:55;2.60;;;2.15;;
3841;SDS011;1936;47.074;15.336;2024-01-16T05:40:00;5.80;;;1.73;;
3841;SDS011;1936;47.074;15.336;2024-01-16T05:42:06;3.10;;;2.22;;
3841;SDS011;1936;47.074;15.336;2024-01-16T05:44:10;10.45;;;3.05;;
3841;SDS011;1936;47.074;15.336;2024-01-16T05:46:13;7.18;;;2.20;;
3841;SDS011;1936;47.074;15.336;2024-01-16T05:48:17;3.35;;;2.15;;
3841;SDS011;1936;47.074;15.336;2024-01-16T05:50:20;3.15;;;2.03;;
3841;SDS011;1936;47.074;15.336;2024-01-16T05:52:24;7.93;;;3.67;;
3841;SDS011;1936;47.074;15.336;2024-01-16T05:54:27;4.22;;;2.78;;
3841;SDS011;1936;47.074;15.336;2024-01-16T05:56:31;4.07;;;2.65;;
3841;SDS011;1936;47.074;15.336;2024-01-16T05:58:37;6.75;;;3.75;;
3841;SDS011;1936;47.074;15.336;2024-01-16T06:00:41;7.00;;;3.95;;
3841;SDS011;1936;47.074;15.336;2024-01-16T06:02:44;5.47;;;3.20;;
3841;SDS011;1936;47.074;15.336;2024-01-16T06:04:48;6.03;;;3.47;;
3841;SDS011;1936;47.074;15.336;2024-01-16T06:06:51;4.68;;;2.40;;
3841;SDS011;1936;47.074;15.336;2024-01-16T06:08:55;6.40;;;3.45;;
3841;SDS011;1936;47.074;15.336;2024-01-16T06:10:58;6.13;;;2.97;;
3841;SDS011;1936;47.074;15.336;2024-01-16T06:13:01;4.75;;;2.22;;
3841;SDS011;1936;47.074;15.336;2024-01-16T06:15:07;3.03;;;2.55;;
3841;SDS011;1936;47.074;15.336;2024-01-16T06:17:13;6.32;;;2.78;;
3841;SDS011;1936;47.074;15.336;2024-01-16T06:19:16;5.03;;;3.42;;
3841;SDS011;1936;47.074;15.336;2024-01-16T06:21:20;5.65;;;3.45;;
3841;SDS011;1936;47.074;15.336;2024-01-16T06:23:25;5.97;;;3.78;;
3841;SDS011;1936;47.074;15.336;2024-01-16T06:25:28;6.95;;;4.32;;
3841;SDS011;1936;47.074;15.336;2024-01-16T06:27:32;9.45;;;5.80;;
3841;SDS011;1936;47.074;15.336;2024-01-16T06:29:35;7.45;;;4.22;;
3841;SDS011;1936;47.074;15.336;2024-01-16T06:31:40;10.95;;;6.00;;
3841;SDS011;1936;47.074;15.336;2024-01-16T06:33:43;16.08;;;5.35;;
3841;SDS011;1936;47.074;15.336;2024-01-16T06:35:47;5.03;;;3.70;;
3841;SDS011;1936;47.074;15.336;2024-01-16T06:37:54;8.75;;;3.97;;
3841;SDS011;1936;47.074;15.336;2024-01-16T06:39:58;10.70;;;4.38;;
3841;SDS011;1936;47.074;15.336;2024-01-16T06:42:01;16.00;;;5.43;;
3841;SDS011;1936;47.074;15.336;2024-01-16T06:44:10;8.63;;;5.15;;
3841;SDS011;1936;47.074;15.336;2024-01-16T06:46:13;7.38;;;4.25;;
3841;SDS011;1936;47.074;15.336;2024-01-16T06:48:18;6.03;;;4.32;;
3841;SDS011;1936;47.074;15.336;2024-01-16T06:50:22;5.18;;;2.97;;
3841;SDS011;1936;47.074;15.336;2024-01-16T06:52:25;7.93;;;4.05;;
3841;SDS011;1936;47.074;15.336;2024-01-16T06:54:28;4.20;;;2.75;;
3841;SDS011;1936;47.074;15.336;2024-01-16T06:56:32;6.88;;;4.63;;
3841;SDS011;1936;47.074;15.336;2024-01-16T06:58:35;7.38;;;4.38;;
3841;SDS011;1936;47.074;15.336;2024-01-16T07:00:39;8.07;;;3.72;;
3841;SDS011;1936;47.074;15.336;2024-01-16T07:02:43;5.45;;;3.80;;
3841;SDS011;1936;47.074;15.336;2024-01-16T07:04:48;4.85;;;3.47;;
3841;SDS011;1936;47.074;15.336;2024-01-16T07:06:52;6.78;;;3.17;;
3841;SDS011;1936;47.074;15.336;2024-01-16T07:08:55;9.90;;;4.03;;
3841;SDS011;1936;47.074;15.336;2024-01-16T07:10:58;7.22;;;3.65;;
3841;SDS011;1936;47.074;15.336;2024-01-16T07:13:02;11.82;;;6.03;;
3841;SDS011;1936;47.074;15.336;2024-01-16T07:15:06;9.93;;;5.85;;
3841;SDS011;1936;47.074;15.336;2024-01-16T07:17:09;9.52;;;5.22;;
3841;SDS011;1936;47.074;15.336;2024-01-16T07:19:12;11.48;;;6.10;;
3841;SDS011;1936;47.074;15.336;2024-01-16T07:21:17;11.18;;;5.63;;
3841;SDS011;1936;47.074;15.336;2024-01-16T07:23:22;9.85;;;4.88;;
3841;SDS011;1936;47.074;15.336;2024-01-16T07:25:25;9.80;;;5.38;;
3841;SDS011;1936;47.074;15.336;2024-01-16T07:27:29;6.00;;;4.65;;
3841;SDS011;1936;47.074;15.336;2024-01-16T07:29:32;8.48;;;5.60;;
3841;SDS011;1936;47.074;15.336;2024-01-16T07:31:35;10.25;;;5.60;;
3841;SDS011;1936;47.074;15.336;2024-01-16T07:33:38;10.27;;;5.30;;
3841;SDS011;1936;47.074;15.336;2024-01-16T07:35:41;7.78;;;4.45;;
3841;SDS011;1936;47.074;15.336;2024-01-16T07:37:51;5.43;;;3.55;;
3841;SDS011;1936;47.074;15.336;2024-01-16T07:39:54;5.18;;;3.47;;
3841;SDS011;1936;47.074;15.336;2024-01-16T07:41:57;6.95;;;4.43;;
3841;SDS011;1936;47.074;15.336;2024-01-16T07:44:01;6.75;;;4.55;;
3841;SDS011;1936;47.074;15.336;2024-01-16T07:46:04;8.80;;;4.22;;
3841;SDS011;1936;47.074;15.336;2024-01-16T07:48:08;12.10;;;5.72;;
3841;SDS011;1936;47.074;15.336;2024-01-16T07:50:11;11.88;;;5.07;;
3841;SDS011;1936;47.074;15.336;2024-01-16T07:52:14;9.15;;;5.50;;
3841;SDS011;1936;47.074;15.336;2024-01-16T07:54:19;8.43;;;4.85;;
3841;SDS011;1936;47.074;15.336;2024-01-16T07:56:23;4.47;;;3.20;;
3841;SDS011;1936;47.074;15.336;2024-01-16T07:58:26;6.18;;;3.17;;
3841;SDS011;1936;47.074;15.336;2024-01-16T08:00:30;8.90;;;3.72;;
3841;SDS011;1936;47.074;15.336;2024-01-16T08:02:34;9.07;;;4.00;;
3841;SDS011;1936;47.074;15.336;2024-01-16T08:04:38;5.50;;;3.35;;
3841;SDS011;1936;47.074;15.336;2024-01-16T08:06:42;6.78;;;3.50;;
3841;SDS011;1936;47.074;15.336;2024-01-16T08:08:44;8.00;;;3.72;;
3841;SDS011;1936;47.074;15.336;2024-01-16T08:10:49;3.90;;;2.70;;
3841;SDS011;1936;47.074;15.336;2024-01-16T08:12:53;4.05;;;2.00;;
3841;SDS011;1936;47.074;15.336;2024-01-16T08:14:56;4.10;;;2.30;;
3841;SDS011;1936;47.074;15.336;2024-01-16T08:16:59;6.93;;;3.60;;
3841;SDS011;1936;47.074;15.336;2024-01-16T08:19:03;3.92;;;2.00;;
3841;SDS011;1936;47.074;15.336;2024-01-16T08:21:06;3.40;;;2.53;;
3841;SDS011;1936;47.074;15.336;2024-01-16T08:23:10;2.35;;;1.35;;
3841;SDS011;1936;47.074;15.336;2024-01-16T08:25:14;2.97;;;1.25;;
3841;SDS011;1936;47.074;15.336;2024-01-16T08:27:18;2.38;;;1.85;;
3841;SDS011;1936;47.074;15.336;2024-01-16T08:29:22;2.67;;;1.33;;
3841;SDS011;1936;47.074;15.336;2024-01-16T08:31:25;1.75;;;0.98;;
3841;SDS011;1936;47.074;15.336;2024-01-16T08:33:29;1.63;;;1.42;;
3841;SDS011;1936;47.074;15.336;2024-01-16T08:35:43;1.50;;;1.02;;
3841;SDS011;1936;47.074;15.336;2024-01-16T08:37:47;2.08;;;1.10;;
3841;SDS011;1936;47.074;15.336;2024-01-16T08:39:52;2.75;;;1.42;;
3841;SDS011;1936;47.074;15.336;2024-01-16T08:41:55;1.80;;;1.50;;
3841;SDS011;1936;47.074;15.336;2024-01-16T08:44:00;2.08;;;1.45;;
3841;SDS011;1936;47.074;15.336;2024-01-16T08:46:04;3.20;;;1.42;;
3841;SDS011;1936;47.074;15.336;2024-01-16T08:48:06;3.28;;;2.25;;
3841;SDS011;1936;47.074;15.336;2024-01-16T08:50:10;6.05;;;2.30;;
3841;SDS011;1936;47.074;15.336;2024-01-16T08:52:14;4.15;;;2.50;;
3841;SDS011;1936;47.074;15.336;2024-01-16T08:54:18;3.97;;;2.20;;
3841;SDS011;1936;47.074;15.336;2024-01-16T08:56:24;5.03;;;2.47;;
3841;SDS011;1936;47.074;15.336;2024-01-16T08:58:27;6.20;;;3.83;;
3841;SDS011;1936;47.074;15.336;2024-01-16T09:00:33;7.00;;;3.60;;
3841;SDS011;1936;47.074;15.336;2024-01-16T09:02:36;4.77;;;3.60;;
3841;SDS011;1936;47.074;15.336;2024-01-16T09:04:40;7.60;;;3.30;;
3841;SDS011;1936;47.074;15.336;2024-01-16T09:06:43;4.40;;;3.00;;
3841;SDS011;1936;47.074;15.336;2024-01-16T09:08:47;4.37;;;3.47;;
3841;SDS011;1936;47.074;15.336;2024-01-16T09:10:51;3.57;;;3.03;;
3841;SDS011;1936;47.074;15.336;2024-01-16T09:12:54;5.93;;;3.00;;
3841;SDS011;1936;47.074;15.336;2024-01-16T09:14:58;8.17;;;5.00;;
3841;SDS011;1936;47.074;15.336;2024-01-16T09:17:03;4.83;;;3.67;;
3841;SDS011;1936;47.074;15.336;2024-01-16T09:19:07;8.40;;;3.33;;
3841;SDS011;1936;47.074;15.336;2024-01-16T09:21:11;4.97;;;3.50;;
3841;SDS011;1936;47.074;15.336;2024-01-16T09:23:14;4.70;;;3.70;;
3841;SDS011;1936;47.074;15.336;2024-01-16T09:25:17;3.77;;;2.50;;
3841;SDS011;1936;47.074;15.336;2024-01-16T09:27:22;6.63;;;3.97;;
3841;SDS011;1936;47.074;15.336;2024-01-16T09:29:26;5.83;;;2.60;;
3841;SDS011;1936;47.074;15.336;2024-01-16T09:31:29;5.83;;;3.23;;
3841;SDS011;1936;47.074;15.336;2024-01-16T09:33:34;3.70;;;3.20;;
3841;SDS011;1936;47.074;15.336;2024-01-16T09:35:38;6.63;;;3.60;;
3841;SDS011;1936;47.074;15.336;2024-01-16T09:37:42;6.53;;;3.90;;
3841;SDS011;1936;47.074;15.336;2024-01-16T09:39:45;4.50;;;2.90;;
3841;SDS011;1936;47.074;15.336;2024-01-16T09:41:48;5.50;;;3.07;;
3841;SDS011;1936;47.074;15.336;2024-01-16T09:43:52;3.00;;;2.70;;
3841;SDS011;1936;47.074;15.336;2024-01-16T09:45:55;7.97;;;7.17;;
3841;SDS011;1936;47.074;15.336;2024-01-16T09:48:04;7.90;;;7.13;;
3841;SDS011;1936;47.074;15.336;2024-01-16T09:50:11;5.53;;;4.33;;
3841;SDS011;1936;47.074;15.336;2024-01-16T09:52:16;5.87;;;3.47;;
3841;SDS011;1936;47.074;15.336;2024-01-16T09:54:21;3.70;;;2.67;;
3841;SDS011;1936;47.074;15.336;2024-01-16T09:56:24;5.30;;;2.50;;
3841;SDS011;1936;47.074;15.336;2024-01-16T09:58:33;2.47;;;1.50;;
3841;SDS011;1936;47.074;15.336;2024-01-16T10:00:38;1.20;;;1.00;;
3841;SDS011;1936;47.074;15.336;2024-01-16T10:02:42;1.20;;;0.97;;
3841;SDS011;1936;47.074;15.336;2024-01-16T10:04:46;1.97;;;1.13;;
3841;SDS011;1936;47.074;15.336;2024-01-16T10:06:51;1.20;;;0.90;;
3841;SDS011;1936;47.074;15.336;2024-01-16T10:08:56;1.07;;;0.90;;
3841;SDS011;1936;47.074;15.336;2024-01-16T10:11:00;2.50;;;2.20;;
3841;SDS011;1936;47.074;15.336;2024-01-16T10:13:04;1.83;;;1.30;;
3841;SDS011;1936;47.074;15.336;2024-01-16T10:15:08;1.70;;;1.20;;
3841;SDS011;1936;47.074;15.336;2024-01-16T10:17:11;1.27;;;0.90;;
3841;SDS011;1936;47.074;15.336;2024-01-16T10:19:17;1.50;;;1.37;;
3841;SDS011;1936;47.074;15.336;2024-01-16T10:21:21;1.57;;;1.47;;
3841;SDS011;1936;47.074;15.336;2024-01-16T10:23:26;1.97;;;1.43;;
3841;SDS011;1936;47.074;15.336;2024-01-16T10:25:29;1.90;;;1.27;;
3841;SDS011;1936;47.074;15.336;2024-01-16T10:27:35;2.70;;;1.30;;
3841;SDS011;1936;47.074;15.336;2024-01-16T10:29:37;1.43;;;1.20;;
3841;SDS011;1936;47.074;15.336;2024-01-16T10:31:58;1.93;;;1.33;;
3841;SDS011;1936;47.074;15.336;2024-01-16T10:34:03;2.77;;;1.43;;
3841;SDS011;1936;47.074;15.336;2024-01-16T10:36:23;1.10;;;0.90;;
3841;SDS011;1936;47.074;15.336;2024-01-16T10:38:30;1.10;;;0.83;;
3841;SDS011;1936;47.074;15.336;2024-01-16T10:40:34;1.97;;;1.27;;
3841;SDS011;1936;47.074;15.336;2024-01-16T10:42:38;1.73;;;1.37;;
3841;SDS011;1936;47.074;15.336;2024-01-16T10:44:52;1.10;;;0.90;;
3841;SDS011;1936;47.074;15.336;2024-01-16T10:47:09;0.83;;;0.73;;
3841;SDS011;1936;47.074;15.336;2024-01-16T10:49:14;1.70;;;0.97;;
3841;SDS011;1936;47.074;15.336;2024-01-16T10:51:17;1.10;;;0.80;;
3841;SDS011;1936;47.074;15.336;2024-01-16T10:53:21;3.20;;;1.23;;
3841;SDS011;1936;47.074;15.336;2024-01-16T10:55:27;1.63;;;1.40;;
3841;SDS011;1936;47.074;15.336;2024-01-16T10:57:32;1.63;;;1.10;;
3841;SDS011;1936;47.074;15.336;2024-01-16T10:59:37;1.30;;;1.20;;
3841;SDS011;1936;47.074;15.336;2024-01-16T11:01:49;1.60;;;1.10;;
3841;SDS011;1936;47.074;15.336;2024-01-16T11:03:54;1.30;;;0.90;;
3841;SDS011;1936;47.074;15.336;2024-01-16T11:06:00;1.63;;;1.03;;
3841;SDS011;1936;47.074;15.336;2024-01-16T11:08:05;2.67;;;0.97;;
3841;SDS011;1936;47.074;15.336;2024-01-16T11:10:11;1.83;;;1.20;;
3841;SDS011;1936;47.074;15.336;2024-01-16T11:12:16;2.13;;;1.23;;
3841;SDS011;1936;47.074;15.336;2024-01-16T11:14:23;1.80;;;1.27;;
3841;SDS011;1936;47.074;15.336;2024-01-16T11:16:28;3.67;;;1.50;;
3841;SDS011;1936;47.074;15.336;2024-01-16T11:18:34;2.97;;;1.27;;
3841;SDS011;1936;47.074;15.336;2024-01-16T11:20:37;1.47;;;1.00;;
3841;SDS011;1936;47.074;15.336;2024-01-16T11:22:47;1.63;;;1.20;;
3841;SDS011;1936;47.074;15.336;2024-01-16T11:27:21;6.27;;;1.70;;
3841;SDS011;1936;47.074;15.336;2024-01-16T11:29:36;2.30;;;1.30;;
3841;SDS011;1936;47.074;15.336;2024-01-16T11:31:40;1.83;;;1.43;;
3841;SDS011;1936;47.074;15.336;2024-01-16T11:33:47;2.23;;;1.47;;
3841;SDS011;1936;47.074;15.336;2024-01-16T11:35:51;3.03;;;1.10;;
3841;SDS011;1936;47.074;15.336;2024-01-16T11:37:54;1.70;;;1.40;;
3841;SDS011;1936;47.074;15.336;2024-01-16T11:40:23;1.63;;;1.17;;
3841;SDS011;1936;47.074;15.336;2024-01-16T11:42:29;1.40;;;1.30;;
3841;SDS011;1936;47.074;15.336;2024-01-16T11:44:39;3.37;;;1.43;;
3841;SDS011;1936;47.074;15.336;2024-01-16T11:46:59;2.40;;;1.63;;
3841;SDS011;1936;47.074;15.336;2024-01-16T11:49:04;4.43;;;2.57;;
3841;SDS011;1936;47.074;15.336;2024-01-16T11:51:22;3.83;;;1.43;;
3841;SDS011;1936;47.074;15.336;2024-01-16T11:53:33;2.30;;;1.43;;
3841;SDS011;1936;47.074;15.336;2024-01-16T11:55:43;2.00;;;1.80;;
3841;SDS011;1936;47.074;15.336;2024-01-16T11:58:16;4.20;;;2.00;;
3841;SDS011;1936;47.074;15.336;2024-01-16T12:00:35;4.97;;;3.20;;
3841;SDS011;1936;47.074;15.336;2024-01-16T12:02:46;1.93;;;1.73;;
3841;SDS011;1936;47.074;15.336;2024-01-16T12:04:54;4.90;;;2.23;;
3841;SDS011;1936;47.074;15.336;2024-01-16T12:06:58;2.53;;;2.00;;
3841;SDS011;1936;47.074;15.336;2024-01-16T12:09:12;2.60;;;2.30;;
3841;SDS011;1936;47.074;15.336;2024-01-16T12:11:18;4.03;;;2.20;;
3841;SDS011;1936;47.074;15.336;2024-01-16T12:13:31;2.10;;;1.60;;
3841;SDS011;1936;47.074;15.336;2024-01-16T12:15:35;2.93;;;2.50;;
3841;SDS011;1936;47.074;15.336;2024-01-16T12:17:38;2.10;;;1.70;;
3841;SDS011;1936;47.074;15.336;2024-01-16T12:19:40;3.83;;;1.50;;
3841;SDS011;1936;47.074;15.336;2024-01-16T12:21:45;5.30;;;1.70;;
3841;SDS011;1936;47.074;15.336;2024-01-16T12:23:49;3.00;;;1.97;;
3841;SDS011;1936;47.074;15.336;2024-01-16T12:26:05;2.30;;;1.50;;
3841;SDS011;1936;47.074;15.336;2024-01-16T12:28:09;2.70;;;1.70;;
3841;SDS011;1936;47.074;15.336;2024-01-16T12:30:15;2.50;;;1.87;;
3841;SDS011;1936;47.074;15.336;2024-01-16T12:32:19;3.00;;;1.90;;
3841;SDS011;1936;47.074;15.336;2024-01-16T12:34:23;9.77;;;2.33;;
3841;SDS011;1936;47.074;15.336;2024-01-16T12:36:26;3.63;;;1.70;;
3841;SDS011;1936;47.074;15.336;2024-01-16T12:38:29;2.87;;;2.20;;
3841;SDS011;1936;47.074;15.336;2024-01-16T12:40:33;2.63;;;2.10;;
3841;SDS011;1936;47.074;15.336;2024-01-16T12:42:37;4.07;;;2.10;;
3841;SDS011;1936;47.074;15.336;2024-01-16T12:44:41;2.70;;;2.13;;